Time;durP1;ratioP1;P1;durP2;ratioP2;P2;SDS_P1;SDS_P2;PMS_P1;PMS_P2;Temp;Humidity;BMP_temperature;BMP_pressure;BME280_temperature;BME280_humidity;BME280_pressure;Samples;Min_cycle;Max_cycle;Signal;HPM_P1;HPM_P2
2021/07/31 00:00:10;;;;;;;8.75;1.67;;;17.90;99.90;;;;;;5077202;28;20202;-77
2021/07/31 00:02:37;;;;;;;7.28;1.45;;;18.00;99.90;;;;;;5079563;28;20186;-77
2021/07/31 00:07:55;;;;;;;7.03;1.60;;;17.90;99.90;;;;;;5070162;28;20233;-77
2021/07/31 00:21:08;;;;;;;10.27;1.73;;;17.90;99.90;;;;;;5068860;28;20695;-77
2021/07/31 00:23:35;;;;;;;3.90;1.20;;;18.00;99.90;;;;;;5069463;28;20233;-77
2021/07/31 00:26:02;;;;;;;3.30;1.90;;;17.90;99.90;;;;;;5069951;28;20205;-77
2021/07/31 00:28:32;;;;;;;3.85;1.35;;;17.90;99.90;;;;;;5078235;28;20629;-77
2021/07/31 00:30:59;;;;;;;12.85;1.83;;;17.80;99.90;;;;;;5070964;28;20206;-77
2021/07/31 00:33:34;;;;;;;2.10;1.20;;;17.80;99.90;;;;;;5077329;28;20201;-77
2021/07/31 00:44:06;;;;;;;4.80;1.55;;;17.90;99.90;;;;;;5068085;28;20216;-76
2021/07/31 00:46:33;;;;;;;10.25;1.52;;;17.90;99.90;;;;;;5068733;28;20197;-77
2021/07/31 00:49:00;;;;;;;2.53;1.48;;;17.90;99.90;;;;;;5074371;28;20278;-77
2021/07/31 00:54:27;;;;;;;5.13;1.48;;;18.00;99.90;;;;;;5073573;28;20210;-77
2021/07/31 00:56:54;;;;;;;3.03;1.30;;;18.00;99.90;;;;;;5074640;28;20331;-77
2021/07/31 00:59:21;;;;;;;4.72;1.42;;;18.00;99.90;;;;;;5069730;28;20817;-77
2021/07/31 01:01:48;;;;;;;3.75;1.30;;;18.00;99.90;;;;;;5073983;28;20270;-77
2021/07/31 01:04:16;;;;;;;7.05;2.10;;;18.00;99.90;;;;;;5069006;28;20237;-77
2021/07/31 01:06:43;;;;;;;3.40;1.20;;;18.00;99.90;;;;;;5076024;28;20205;-77
2021/07/31 01:09:11;;;;;;;4.65;1.52;;;18.00;99.90;;;;;;5070792;28;20229;-77
2021/07/31 01:11:40;;;;;;;6.53;1.48;;;18.10;99.90;;;;;;5069823;28;20206;-77
2021/07/31 01:14:08;;;;;;;2.53;1.25;;;18.10;99.90;;;;;;5072462;28;20206;-77
2021/07/31 01:16:36;;;;;;;1.50;1.40;;;18.00;99.90;;;;;;5068228;28;20194;-77
2021/07/31 01:19:03;;;;;;;3.72;1.42;;;18.00;99.90;;;;;;5067637;28;20224;-74
2021/07/31 01:21:40;;;;;;;2.38;1.40;;;18.00;99.90;;;;;;5074175;28;20201;-77
2021/07/31 01:24:09;;;;;;;2.28;1.40;;;17.90;99.90;;;;;;5066310;28;20197;-77
2021/07/31 01:26:42;;;;;;;3.35;1.48;;;17.90;99.90;;;;;;5066761;28;20206;-77
2021/07/31 01:29:11;;;;;;;2.45;1.10;;;17.90;99.90;;;;;;5067021;28;20260;-77
2021/07/31 01:34:19;;;;;;;4.88;1.58;;;17.90;99.90;;;;;;5065266;28;20614;-77
2021/07/31 01:36:48;;;;;;;9.77;2.58;;;17.90;99.90;;;;;;5066334;28;20263;-77
2021/07/31 01:39:15;;;;;;;3.65;2.05;;;17.90;99.90;;;;;;5066362;28;20258;-77
2021/07/31 01:41:45;;;;;;;4.55;1.52;;;17.80;99.90;;;;;;5070140;28;20198;-77
2021/07/31 01:44:12;;;;;;;9.45;2.30;;;17.90;99.90;;;;;;5065862;28;20209;-77
2021/07/31 01:46:40;;;;;;;3.00;1.48;;;17.80;99.90;;;;;;5069189;28;20201;-77
2021/07/31 01:49:06;;;;;;;3.28;1.80;;;17.80;99.90;;;;;;5065491;28;20222;-77
2021/07/31 01:51:33;;;;;;;5.15;1.42;;;17.80;99.90;;;;;;5067499;28;20221;-77
2021/07/31 01:54:02;;;;;;;4.38;2.40;;;17.90;99.90;;;;;;5075161;28;20202;-77
2021/07/31 01:56:28;;;;;;;6.18;1.52;;;17.90;99.90;;;;;;5071217;28;20235;-77
2021/07/31 01:58:57;;;;;;;4.25;2.00;;;17.80;99.90;;;;;;5065880;28;20235;-76
2021/07/31 02:01:24;;;;;;;2.88;1.88;;;17.90;99.90;;;;;;5075312;28;20204;-77
2021/07/31 02:22:54;;;;;;;3.45;1.73;;;17.80;99.90;;;;;;5067535;28;20205;-77
2021/07/31 02:25:23;;;;;;;8.18;2.15;;;17.80;99.90;;;;;;5069464;28;20661;-77
2021/07/31 02:27:50;;;;;;;4.25;1.70;;;17.80;99.90;;;;;;5070001;28;20229;-76
2021/07/31 02:30:17;;;;;;;6.38;2.03;;;17.70;99.90;;;;;;5071694;28;20732;-76
2021/07/31 02:32:44;;;;;;;4.63;2.25;;;17.70;99.90;;;;;;5069616;28;20202;-77
2021/07/31 02:35:12;;;;;;;1.70;1.60;;;17.60;99.90;;;;;;5066163;28;20228;-77
2021/07/31 02:37:39;;;;;;;10.50;2.30;;;17.70;99.90;;;;;;5065284;28;20232;-77
2021/07/31 02:40:08;;;;;;;10.38;3.05;;;17.60;99.90;;;;;;5078580;28;20227;-77
2021/07/31 02:42:36;;;;;;;5.90;2.08;;;17.60;99.90;;;;;;5072623;28;20198;-77
2021/07/31 02:45:05;;;;;;;5.72;2.30;;;17.60;99.90;;;;;;5068481;28;20237;-77
2021/07/31 02:47:32;;;;;;;4.00;1.80;;;17.60;99.90;;;;;;5069825;28;20267;-77
2021/07/31 02:49:59;;;;;;;2.97;1.90;;;17.60;99.90;;;;;;5069354;28;20267;-77
2021/07/31 02:52:27;;;;;;;4.47;2.60;;;17.60;99.90;;;;;;5074323;28;20197;-76
2021/07/31 02:54:54;;;;;;;6.68;2.10;;;17.60;99.90;;;;;;5072605;28;20201;-77
2021/07/31 02:57:21;;;;;;;4.28;2.00;;;17.60;99.90;;;;;;5074892;28;20210;-77
2021/07/31 02:59:49;;;;;;;4.30;1.95;;;17.60;99.90;;;;;;5076595;28;20275;-77
2021/07/31 03:02:17;;;;;;;4.90;2.10;;;17.60;99.90;;;;;;5070932;28;20202;-77
2021/07/31 03:04:44;;;;;;;13.13;1.98;;;17.70;99.90;;;;;;5076849;28;20241;-77
2021/07/31 03:07:11;;;;;;;8.48;3.58;;;17.60;99.90;;;;;;5069820;28;20232;-77
2021/07/31 03:09:38;;;;;;;5.78;2.50;;;17.60;99.90;;;;;;5075261;28;20248;-77
2021/07/31 03:12:05;;;;;;;5.40;2.05;;;17.60;99.90;;;;;;5069472;28;20202;-77
2021/07/31 03:14:39;;;;;;;4.78;2.72;;;17.60;99.90;;;;;;5070365;28;20206;-77
2021/07/31 03:17:11;;;;;;;3.38;1.85;;;17.60;99.90;;;;;;5077227;28;20208;-76
2021/07/31 03:19:38;;;;;;;17.25;2.95;;;17.70;99.90;;;;;;5075339;28;20201;-77
2021/07/31 03:22:06;;;;;;;7.97;1.92;;;17.60;99.90;;;;;;5078849;28;20268;-77
2021/07/31 03:24:34;;;;;;;2.35;1.45;;;17.60;99.90;;;;;;5070280;28;20289;-76
2021/07/31 03:27:01;;;;;;;3.55;2.20;;;17.60;99.90;;;;;;5072520;28;20294;-77
2021/07/31 03:29:29;;;;;;;4.72;1.98;;;17.60;99.90;;;;;;5068064;28;20676;-76
2021/07/31 03:31:55;;;;;;;5.35;1.90;;;17.60;99.90;;;;;;5071548;28;20264;-76
2021/07/31 03:34:24;;;;;;;7.60;1.77;;;17.50;99.90;;;;;;5070169;28;20719;-76
2021/07/31 03:36:54;;;;;;;7.45;1.77;;;17.60;99.90;;;;;;5068083;28;20206;-76
2021/07/31 03:39:24;;;;;;;3.88;1.90;;;17.60;99.90;;;;;;5073351;28;20595;-76
2021/07/31 03:41:51;;;;;;;10.07;2.17;;;17.60;99.90;;;;;;5068085;28;20255;-77
2021/07/31 03:44:18;;;;;;;6.93;2.40;;;17.60;99.90;;;;;;5073734;28;20206;-77
2021/07/31 03:46:46;;;;;;;6.22;2.50;;;17.60;99.90;;;;;;5068139;28;20639;-76
2021/07/31 03:49:14;;;;;;;5.68;2.20;;;17.60;99.90;;;;;;5074427;28;20245;-76
2021/07/31 03:51:43;;;;;;;3.60;2.30;;;17.60;99.90;;;;;;5073798;28;20201;-76
2021/07/31 03:54:09;;;;;;;4.72;2.55;;;17.50;99.90;;;;;;5068437;28;20202;-77
2021/07/31 03:56:36;;;;;;;6.65;2.28;;;17.50;99.90;;;;;;5069626;28;20460;-77
2021/07/31 03:59:03;;;;;;;6.05;1.90;;;17.50;99.90;;;;;;5068044;28;20539;-78
2021/07/31 04:01:30;;;;;;;6.05;2.15;;;17.50;99.90;;;;;;5067743;28;20291;-75
2021/07/31 04:03:57;;;;;;;2.75;2.08;;;17.60;99.90;;;;;;5067282;28;20225;-75
2021/07/31 04:06:24;;;;;;;2.45;1.73;;;17.50;99.90;;;;;;5067756;28;20221;-74
2021/07/31 04:08:52;;;;;;;4.53;2.35;;;17.50;99.90;;;;;;5067406;28;20244;-74
2021/07/31 04:11:20;;;;;;;4.63;2.67;;;17.40;99.90;;;;;;5067215;28;20205;-75
2021/07/31 04:13:47;;;;;;;4.75;1.98;;;17.40;99.90;;;;;;5067693;28;20331;-74
2021/07/31 04:16:14;;;;;;;5.47;2.00;;;17.40;99.90;;;;;;5067295;28;20201;-74
2021/07/31 04:18:41;;;;;;;4.05;2.25;;;17.40;99.90;;;;;;5071122;28;20197;-74
2021/07/31 04:21:08;;;;;;;3.90;1.83;;;17.30;99.90;;;;;;5067238;28;20546;-74
2021/07/31 04:23:36;;;;;;;4.45;2.20;;;17.40;99.90;;;;;;5068100;28;20193;-74
2021/07/31 04:26:15;;;;;;;5.60;2.38;;;17.30;99.90;;;;;;5071343;28;20217;-75
2021/07/31 04:28:42;;;;;;;2.75;1.95;;;17.30;99.90;;;;;;5068199;28;20225;-75
2021/07/31 04:31:11;;;;;;;5.63;2.35;;;17.20;99.90;;;;;;5070292;28;20210;-74
2021/07/31 04:33:38;;;;;;;10.30;2.50;;;17.20;99.90;;;;;;5069030;28;20201;-75
2021/07/31 04:36:06;;;;;;;5.97;2.20;;;17.20;99.90;;;;;;5067413;28;20239;-74
2021/07/31 04:38:33;;;;;;;4.55;1.85;;;17.30;99.90;;;;;;5074565;28;20205;-74
2021/07/31 04:41:00;;;;;;;4.20;2.15;;;17.30;99.90;;;;;;5075986;28;20213;-74
2021/07/31 04:43:29;;;;;;;7.75;2.78;;;17.20;99.90;;;;;;5090140;28;20189;-74
2021/07/31 04:45:56;;;;;;;4.25;2.22;;;17.20;99.90;;;;;;5087314;28;20215;-74
2021/07/31 04:48:23;;;;;;;9.18;2.83;;;17.20;99.90;;;;;;5074171;28;20221;-75
2021/07/31 04:50:57;;;;;;;7.07;2.65;;;17.20;99.90;;;;;;5066430;28;20205;-74
2021/07/31 04:53:24;;;;;;;2.60;2.22;;;17.20;99.90;;;;;;5067533;28;20291;-74
2021/07/31 04:55:51;;;;;;;6.80;2.70;;;17.20;99.90;;;;;;5066755;28;20259;-74
2021/07/31 04:58:18;;;;;;;3.88;2.08;;;17.20;99.90;;;;;;5066764;28;20201;-74
2021/07/31 05:00:47;;;;;;;7.68;2.42;;;17.20;99.90;;;;;;5069190;28;20201;-74
2021/07/31 05:03:14;;;;;;;2.97;2.30;;;17.20;99.90;;;;;;5072963;28;20300;-74
2021/07/31 05:05:41;;;;;;;8.70;2.60;;;17.30;99.90;;;;;;5070450;28;20284;-74
2021/07/31 05:08:08;;;;;;;3.90;2.20;;;17.20;99.90;;;;;;5065698;28;20202;-74
2021/07/31 05:10:39;;;;;;;7.20;2.33;;;17.30;99.90;;;;;;5066216;28;20264;-74
2021/07/31 05:13:06;;;;;;;4.53;2.40;;;17.30;99.90;;;;;;5072054;28;20291;-74
2021/07/31 05:15:35;;;;;;;7.38;2.30;;;17.30;99.90;;;;;;5066891;28;20289;-74
2021/07/31 05:18:03;;;;;;;8.82;3.28;;;17.30;99.90;;;;;;5067032;28;20227;-74
2021/07/31 05:20:31;;;;;;;7.75;2.45;;;17.30;99.90;;;;;;5076486;28;20220;-74
2021/07/31 05:22:58;;;;;;;8.88;3.00;;;17.30;99.90;;;;;;5065705;28;20201;-75
2021/07/31 05:25:25;;;;;;;3.30;2.42;;;17.30;99.90;;;;;;5066952;28;20251;-74
2021/07/31 05:27:52;;;;;;;3.63;2.53;;;17.30;99.90;;;;;;5066811;28;20205;-74
2021/07/31 05:30:20;;;;;;;2.70;2.15;;;17.30;99.90;;;;;;5070383;28;20229;-74
2021/07/31 05:32:47;;;;;;;6.07;2.60;;;17.40;99.90;;;;;;5070444;28;20201;-74
2021/07/31 05:35:15;;;;;;;6.68;2.30;;;17.30;99.90;;;;;;5071146;28;20201;-75
2021/07/31 05:37:42;;;;;;;4.45;2.00;;;17.30;99.90;;;;;;5065946;28;20201;-75
2021/07/31 05:40:10;;;;;;;3.33;2.45;;;17.30;99.90;;;;;;5066011;28;20210;-75
2021/07/31 05:42:37;;;;;;;4.80;2.42;;;17.40;99.90;;;;;;5066405;28;20232;-76
2021/07/31 05:45:05;;;;;;;3.70;2.10;;;17.40;99.90;;;;;;5071240;28;20206;-76
2021/07/31 05:47:33;;;;;;;3.72;2.70;;;17.40;99.90;;;;;;5065961;28;20198;-75
2021/07/31 05:50:03;;;;;;;2.30;2.10;;;17.50;99.90;;;;;;5069089;28;20229;-75
2021/07/31 05:52:33;;;;;;;6.30;2.22;;;17.40;99.90;;;;;;5072096;28;20259;-75
2021/07/31 05:55:00;;;;;;;3.08;1.98;;;17.40;99.90;;;;;;5066599;28;20232;-75
2021/07/31 05:57:27;;;;;;;4.05;1.90;;;17.40;99.90;;;;;;5066316;28;20259;-75
2021/07/31 05:59:53;;;;;;;3.33;2.13;;;17.50;99.90;;;;;;5066003;28;20206;-75
2021/07/31 06:02:20;;;;;;;12.02;4.38;;;17.50;99.90;;;;;;5075442;28;20198;-75
2021/07/31 06:04:47;;;;;;;7.05;2.47;;;17.50;99.90;;;;;;5066563;28;20229;-75
2021/07/31 06:07:14;;;;;;;5.57;2.10;;;17.50;99.90;;;;;;5072086;28;20209;-75
2021/07/31 06:09:46;;;;;;;3.85;2.42;;;17.50;99.90;;;;;;5065443;28;20218;-75
2021/07/31 06:12:13;;;;;;;2.60;2.00;;;17.50;99.90;;;;;;5069586;28;20597;-76
2021/07/31 06:14:41;;;;;;;2.33;2.13;;;17.50;99.90;;;;;;5065929;28;20276;-76
2021/07/31 06:17:08;;;;;;;5.15;1.88;;;17.60;99.90;;;;;;5065986;28;21134;-75
2021/07/31 06:19:35;;;;;;;5.75;2.70;;;17.60;99.90;;;;;;5071700;28;20260;-74
2021/07/31 06:22:03;;;;;;;4.32;2.67;;;17.60;99.90;;;;;;5070293;28;20209;-74
2021/07/31 06:24:31;;;;;;;5.15;2.35;;;17.70;99.90;;;;;;5069765;28;20258;-74
2021/07/31 06:26:59;;;;;;;3.60;2.33;;;17.70;99.90;;;;;;5076649;28;20255;-75
2021/07/31 06:29:26;;;;;;;2.92;2.38;;;17.70;99.90;;;;;;5069792;28;20221;-76
2021/07/31 06:31:53;;;;;;;3.85;2.58;;;17.80;99.90;;;;;;5069857;28;20243;-78
2021/07/31 06:34:20;;;;;;;6.28;2.80;;;17.80;99.90;;;;;;5077827;28;20205;-75
2021/07/31 06:36:47;;;;;;;4.18;2.42;;;17.80;99.90;;;;;;5076819;28;20227;-75
2021/07/31 06:39:14;;;;;;;8.35;2.70;;;17.80;99.90;;;;;;5075535;28;20206;-75
2021/07/31 06:41:41;;;;;;;6.50;2.55;;;17.90;99.90;;;;;;5076710;28;20215;-75
2021/07/31 06:44:09;;;;;;;5.55;2.00;;;17.80;99.90;;;;;;5068775;28;20624;-75
2021/07/31 06:46:36;;;;;;;4.50;2.10;;;17.90;99.90;;;;;;5072815;28;20193;-74
2021/07/31 06:49:04;;;;;;;3.05;2.33;;;17.80;99.90;;;;;;5071572;28;20225;-75
2021/07/31 06:51:31;;;;;;;3.10;2.08;;;17.80;99.90;;;;;;5069226;28;20205;-75
2021/07/31 06:54:01;;;;;;;3.53;2.30;;;17.70;99.90;;;;;;5069418;28;20201;-75
2021/07/31 06:56:28;;;;;;;4.80;2.50;;;17.80;99.90;;;;;;5074164;28;20229;-75
2021/07/31 06:58:55;;;;;;;5.15;2.40;;;17.90;99.90;;;;;;5069403;28;20236;-75
2021/07/31 07:01:23;;;;;;;4.18;2.88;;;17.90;99.90;;;;;;5072925;28;20223;-75
2021/07/31 07:03:52;;;;;;;5.43;2.65;;;17.90;99.90;;;;;;5076400;28;20233;-75
2021/07/31 07:06:19;;;;;;;4.47;2.42;;;18.00;99.90;;;;;;5068870;28;20197;-75
2021/07/31 07:08:46;;;;;;;3.30;2.17;;;18.00;99.90;;;;;;5072517;28;20205;-75
2021/07/31 07:11:14;;;;;;;3.28;2.10;;;18.20;99.90;;;;;;5068441;28;20221;-75
2021/07/31 07:13:41;;;;;;;5.18;2.60;;;18.20;99.90;;;;;;5076021;28;20694;-75
2021/07/31 07:16:08;;;;;;;4.35;2.28;;;18.30;99.90;;;;;;5075377;28;20971;-74
2021/07/31 07:18:39;;;;;;;6.15;2.80;;;18.30;99.90;;;;;;5071525;28;20198;-75
2021/07/31 07:21:07;;;;;;;4.45;2.10;;;18.40;99.90;;;;;;5073945;28;20283;-75
2021/07/31 07:23:35;;;;;;;3.47;2.33;;;18.50;99.90;;;;;;5073288;28;20201;-74
2021/07/31 07:26:02;;;;;;;4.72;2.50;;;18.60;99.90;;;;;;5069607;28;20201;-75
2021/07/31 07:28:31;;;;;;;5.78;2.30;;;18.60;99.90;;;;;;5070467;28;20464;-75
2021/07/31 07:30:58;;;;;;;5.22;2.33;;;18.50;99.90;;;;;;5067378;28;20680;-75
2021/07/31 07:33:25;;;;;;;3.90;2.42;;;18.50;99.90;;;;;;5067755;28;20201;-75
2021/07/31 07:35:54;;;;;;;6.68;2.10;;;18.50;99.90;;;;;;5075312;28;20200;-74
2021/07/31 07:38:21;;;;;;;4.40;2.25;;;18.50;99.90;;;;;;5074146;28;20232;-74
2021/07/31 07:40:48;;;;;;;6.53;2.78;;;18.60;99.90;;;;;;5071484;28;20490;-76
2021/07/31 07:43:15;;;;;;;2.72;2.45;;;18.60;99.90;;;;;;5072582;28;20210;-76
2021/07/31 07:45:42;;;;;;;4.90;1.80;;;18.80;99.90;;;;;;5078614;28;20233;-77
2021/07/31 07:50:49;;;;;;;3.15;2.35;;;19.00;99.90;;;;;;5067274;28;20237;-75
2021/07/31 07:53:18;;;;;;;5.15;2.15;;;19.20;99.90;;;;;;5070803;28;20213;-74
2021/07/31 07:55:45;;;;;;;6.47;2.28;;;19.60;99.90;;;;;;5067241;28;20213;-75
2021/07/31 07:58:12;;;;;;;2.42;1.90;;;20.00;99.90;;;;;;5074324;28;20197;-74
2021/07/31 08:00:39;;;;;;;5.75;2.60;;;20.20;99.90;;;;;;5067904;28;20267;-74
2021/07/31 08:03:08;;;;;;;6.28;1.88;;;20.50;99.90;;;;;;5066983;28;20293;-74
2021/07/31 08:05:38;;;;;;;3.08;1.55;;;20.60;99.90;;;;;;5067200;28;20217;-74
2021/07/31 08:08:05;;;;;;;2.97;1.90;;;20.60;99.90;;;;;;5067009;28;20261;-76
2021/07/31 08:10:34;;;;;;;3.90;1.90;;;20.40;99.90;;;;;;5070166;28;20517;-75
2021/07/31 08:13:01;;;;;;;3.38;1.95;;;20.30;99.90;;;;;;5067536;28;20244;-75
2021/07/31 08:15:29;;;;;;;2.22;1.70;;;20.20;99.90;;;;;;5072618;28;20198;-75
2021/07/31 08:17:56;;;;;;;4.05;2.65;;;20.10;99.90;;;;;;5067011;28;20263;-75
2021/07/31 08:20:23;;;;;;;5.38;2.50;;;19.80;99.90;;;;;;5066782;28;20730;-75
2021/07/31 08:22:50;;;;;;;4.50;1.90;;;19.60;99.90;;;;;;5066619;28;20236;-75
2021/07/31 08:25:17;;;;;;;5.75;2.95;;;19.60;99.90;;;;;;5070531;28;20546;-75
2021/07/31 08:27:45;;;;;;;5.70;2.10;;;19.40;99.90;;;;;;5066230;28;20212;-75
2021/07/31 08:30:13;;;;;;;6.68;2.60;;;19.40;99.90;;;;;;5066965;28;20267;-75
2021/07/31 08:32:42;;;;;;;7.15;2.00;;;19.40;99.90;;;;;;5066793;28;20675;-75
2021/07/31 08:35:10;;;;;;;9.10;2.00;;;19.50;99.90;;;;;;5071658;28;20252;-75
2021/07/31 08:37:38;;;;;;;3.50;1.85;;;19.50;99.90;;;;;;5048785;28;20198;-75
2021/07/31 08:40:09;;;;;;;7.65;2.75;;;19.60;99.90;;;;;;5066848;28;20292;-75
2021/07/31 08:42:36;;;;;;;3.60;2.05;;;19.70;99.90;;;;;;5066392;28;20257;-75
2021/07/31 08:45:06;;;;;;;3.83;2.22;;;19.70;99.90;;;;;;5071059;28;20261;-75
2021/07/31 08:47:33;;;;;;;2.35;1.80;;;19.80;99.90;;;;;;5071273;28;20197;-75
2021/07/31 08:50:02;;;;;;;5.93;2.33;;;20.00;99.90;;;;;;5069659;28;20319;-75
2021/07/31 08:52:32;;;;;;;6.65;2.08;;;20.10;99.90;;;;;;5067521;28;20552;-75
2021/07/31 08:54:59;;;;;;;4.30;2.83;;;20.10;99.90;;;;;;5066734;28;20209;-75
2021/07/31 08:57:26;;;;;;;3.65;2.40;;;20.40;99.90;;;;;;5071219;28;20229;-75
2021/07/31 08:59:53;;;;;;;9.45;2.70;;;20.80;99.90;;;;;;5069105;28;20224;-75
2021/07/31 09:02:22;;;;;;;4.43;1.85;;;21.20;99.90;;;;;;5070205;28;20679;-75
2021/07/31 09:04:51;;;;;;;5.20;2.42;;;21.20;99.90;;;;;;5068388;28;20237;-75
2021/07/31 09:07:18;;;;;;;4.30;2.50;;;21.20;99.90;;;;;;5071386;28;21407;-76
2021/07/31 09:09:46;;;;;;;6.90;2.20;;;21.20;99.90;;;;;;5078429;28;20228;-74
2021/07/31 09:12:13;;;;;;;4.50;2.45;;;21.10;99.90;;;;;;5077381;28;20659;-74
2021/07/31 09:14:47;;;;;;;4.75;2.58;;;21.20;99.90;;;;;;5073291;28;20205;-74
2021/07/31 09:17:27;;;;;;;4.53;2.10;;;21.20;99.90;;;;;;5070473;28;20205;-74
2021/07/31 09:19:56;;;;;;;6.05;2.53;;;21.00;99.90;;;;;;5066947;28;20209;-75
2021/07/31 09:22:23;;;;;;;2.42;1.98;;;20.70;99.90;;;;;;5072796;28;20205;-75
2021/07/31 09:25:08;;;;;;;2.40;2.22;;;20.50;99.90;;;;;;5071135;28;20235;-74
2021/07/31 09:27:35;;;;;;;3.38;2.40;;;20.50;99.90;;;;;;5065666;28;20265;-74
2021/07/31 09:30:03;;;;;;;3.20;2.47;;;20.70;99.90;;;;;;5066334;28;20244;-74
2021/07/31 09:32:42;;;;;;;4.75;2.63;;;21.10;99.90;;;;;;5065324;28;20202;-74
2021/07/31 09:35:23;;;;;;;2.38;2.05;;;21.30;99.90;;;;;;5073292;28;20193;-75
2021/07/31 09:37:51;;;;;;;5.30;2.60;;;21.60;99.90;;;;;;5067035;28;20734;-75
2021/07/31 09:40:29;;;;;;;2.22;1.63;;;21.80;99.90;;;;;;5065402;28;20209;-75
2021/07/31 09:42:56;;;;;;;6.15;2.30;;;21.80;99.90;;;;;;5065330;28;20257;-74
2021/07/31 09:45:33;;;;;;;2.40;2.08;;;21.70;99.90;;;;;;5065304;28;20252;-75
2021/07/31 09:48:03;;;;;;;4.20;1.90;;;21.60;99.90;;;;;;5066172;28;20261;-74
2021/07/31 09:50:38;;;;;;;1.92;1.73;;;21.60;99.90;;;;;;5079088;28;20224;-75
2021/07/31 09:53:12;;;;;;;2.72;1.98;;;21.50;99.90;;;;;;5076208;28;20208;-75
2021/07/31 09:55:44;;;;;;;3.90;2.03;;;21.60;99.90;;;;;;5064902;28;20209;-75
2021/07/31 09:58:14;;;;;;;4.07;1.80;;;21.50;99.90;;;;;;5068240;28;20202;-74
2021/07/31 10:00:43;;;;;;;2.50;1.77;;;21.40;99.90;;;;;;5064888;28;20273;-75
2021/07/31 10:11:30;;;;;;;3.63;1.90;;;21.30;99.90;;;;;;5088193;28;20601;-74
2021/07/31 10:13:57;;;;;;;6.93;3.92;;;21.30;99.90;;;;;;5082494;28;20250;-74
2021/07/31 10:16:24;;;;;;;4.45;1.70;;;21.30;99.90;;;;;;5082086;28;20253;-74
2021/07/31 10:19:02;;;;;;;2.72;2.17;;;21.40;99.90;;;;;;5091988;28;20207;-74
2021/07/31 10:21:31;;;;;;;1.70;1.60;;;21.60;99.90;;;;;;5086793;28;20723;-74
2021/07/31 10:24:03;;;;;;;2.28;2.00;;;21.80;99.90;;;;;;5082902;28;20233;-73
2021/07/31 10:26:33;;;;;;;2.92;2.00;;;22.10;99.90;;;;;;5082892;28;20235;-74
2021/07/31 10:29:33;;;;;;;2.83;1.95;;;22.30;99.90;;;;;;5088325;28;20201;-73
2021/07/31 10:32:46;;;;;;;2.78;2.10;;;22.30;99.90;;;;;;5082978;28;20205;-72
2021/07/31 10:35:36;;;;;;;2.05;1.42;;;22.60;99.90;;;;;;5085911;28;20205;-73
2021/07/31 10:38:06;;;;;;;3.00;2.08;;;22.80;99.90;;;;;;5083848;28;20205;-74
2021/07/31 10:40:54;;;;;;;4.30;1.70;;;22.70;99.90;;;;;;5085352;28;20197;-73
2021/07/31 10:43:24;;;;;;;4.97;2.22;;;22.70;99.90;;;;;;5085246;28;20224;-73
2021/07/31 10:46:17;;;;;;;1.40;1.30;;;22.60;99.90;;;;;;5082294;28;20242;-73
2021/07/31 10:48:44;;;;;;;1.85;1.70;;;22.40;99.90;;;;;;5092365;28;20208;-73
2021/07/31 10:51:43;;;;;;;3.08;2.78;;;22.40;99.90;;;;;;5082171;28;20782;-73
2021/07/31 10:54:10;;;;;;;2.25;1.10;;;22.40;99.90;;;;;;5082344;28;20699;-73
2021/07/31 10:56:55;;;;;;;1.92;1.73;;;22.30;99.90;;;;;;5088599;28;20201;-73
2021/07/31 10:59:24;;;;;;;6.60;1.75;;;22.10;99.90;;;;;;5089318;28;20205;-73
2021/07/31 11:02:11;;;;;;;6.70;2.17;;;21.90;99.90;;;;;;5082822;28;20202;-73
2021/07/31 11:04:57;;;;;;;3.42;2.30;;;22.00;99.90;;;;;;5087849;28;20245;-73
2021/07/31 11:07:27;;;;;;;5.93;2.05;;;22.00;99.90;;;;;;5081047;28;20197;-73
2021/07/31 11:10:43;;;;;;;3.28;1.52;;;22.00;99.90;;;;;;5087066;28;20206;-73
2021/07/31 11:13:10;;;;;;;3.35;2.00;;;22.00;99.90;;;;;;5080814;28;20201;-73
2021/07/31 11:16:19;;;;;;;4.75;2.35;;;22.10;99.90;;;;;;5072345;28;20237;-74
2021/07/31 11:18:48;;;;;;;4.93;1.80;;;22.10;99.90;;;;;;5081365;28;20201;-73
2021/07/31 11:21:17;;;;;;;4.80;2.10;;;21.90;99.90;;;;;;5070271;28;20202;-73
2021/07/31 11:23:47;;;;;;;4.07;2.00;;;21.80;99.90;;;;;;5068082;28;20269;-73
2021/07/31 11:26:31;;;;;;;3.13;1.80;;;21.70;99.90;;;;;;5072870;28;20206;-73
2021/07/31 11:28:58;;;;;;;2.60;1.23;;;21.70;99.90;;;;;;5079664;28;20676;-73
2021/07/31 11:31:27;;;;;;;3.13;1.20;;;21.90;99.90;;;;;;5075185;28;20202;-73
2021/07/31 11:33:58;;;;;;;5.95;1.58;;;22.00;99.90;;;;;;5075471;28;20197;-73
2021/07/31 11:36:25;;;;;;;1.65;1.55;;;22.10;99.90;;;;;;5067180;28;20202;-73
2021/07/31 11:38:53;;;;;;;2.28;1.75;;;22.20;99.90;;;;;;5071925;28;20259;-73
2021/07/31 11:41:20;;;;;;;2.78;1.52;;;22.30;99.90;;;;;;5071351;28;20200;-73
2021/07/31 11:43:50;;;;;;;7.28;2.25;;;22.40;99.90;;;;;;5067069;28;20259;-73
2021/07/31 11:46:33;;;;;;;1.58;1.48;;;22.40;99.90;;;;;;5073445;28;20224;-73
2021/07/31 11:49:02;;;;;;;1.67;1.58;;;22.50;99.90;;;;;;5067613;28;20205;-73
2021/07/31 11:51:30;;;;;;;1.23;1.10;;;22.60;99.90;;;;;;5071163;28;20280;-73
2021/07/31 11:54:05;;;;;;;1.92;1.13;;;22.60;99.90;;;;;;5071329;28;20205;-73
2021/07/31 11:56:33;;;;;;;1.75;1.15;;;22.60;99.90;;;;;;5069566;28;20197;-73
2021/07/31 11:59:01;;;;;;;2.55;1.95;;;22.60;99.90;;;;;;5074550;28;20259;-73
2021/07/31 12:01:30;;;;;;;2.63;1.88;;;22.50;99.90;;;;;;5073970;28;20265;-73
2021/07/31 12:03:57;;;;;;;11.38;2.28;;;22.30;99.90;;;;;;5069428;28;20233;-73
2021/07/31 12:06:46;;;;;;;8.35;2.53;;;22.30;99.90;;;;;;5074246;28;20198;-73
2021/07/31 12:09:23;;;;;;;5.65;3.00;;;22.40;99.90;;;;;;5076075;28;20212;-73
2021/07/31 12:11:51;;;;;;;4.10;2.28;;;22.40;99.90;;;;;;5087625;28;20444;-73
2021/07/31 12:14:30;;;;;;;3.85;2.20;;;22.50;99.90;;;;;;5087250;28;20216;-73
2021/07/31 12:17:22;;;;;;;3.35;2.60;;;22.60;99.90;;;;;;5075734;28;20251;-73
2021/07/31 12:19:52;;;;;;;3.72;2.15;;;22.60;99.90;;;;;;5070019;28;20251;-73
2021/07/31 12:22:20;;;;;;;3.20;2.10;;;22.60;99.90;;;;;;5067053;28;20235;-73
2021/07/31 12:25:10;;;;;;;7.00;3.15;;;22.60;99.90;;;;;;5066488;28;20233;-73
2021/07/31 12:27:58;;;;;;;4.40;3.13;;;22.50;99.90;;;;;;5065165;28;20198;-74
2021/07/31 12:30:28;;;;;;;2.85;1.90;;;22.40;99.90;;;;;;5075866;28;20228;-73
2021/07/31 12:33:14;;;;;;;3.88;2.28;;;22.30;99.90;;;;;;5071737;28;20206;-73
2021/07/31 12:35:43;;;;;;;4.68;1.60;;;22.20;99.90;;;;;;5069381;28;20205;-73
2021/07/31 12:38:12;;;;;;;2.78;1.52;;;21.90;99.90;;;;;;5065996;28;20201;-73
2021/07/31 12:40:39;;;;;;;3.25;1.85;;;21.70;99.90;;;;;;5068559;28;20220;-74
2021/07/31 12:43:08;;;;;;;2.08;1.73;;;21.30;99.90;;;;;;5071471;28;20220;-74
2021/07/31 12:45:36;;;;;;;2.40;1.80;;;21.10;99.90;;;;;;5066659;28;20289;-73
2021/07/31 12:48:05;;;;;;;1.77;1.42;;;21.20;99.90;;;;;;5067232;28;20258;-73
2021/07/31 12:50:33;;;;;;;2.88;1.55;;;21.10;99.90;;;;;;5076881;28;20193;-73
2021/07/31 12:53:01;;;;;;;4.15;1.60;;;21.10;99.90;;;;;;5066723;28;20229;-73
2021/07/31 12:55:29;;;;;;;6.18;2.00;;;21.10;99.90;;;;;;5066971;28;20206;-73
2021/07/31 12:57:56;;;;;;;2.83;1.73;;;21.20;99.90;;;;;;5066520;28;20231;-73
2021/07/31 13:00:23;;;;;;;2.72;1.55;;;21.30;99.90;;;;;;5070972;28;20229;-73
2021/07/31 13:02:51;;;;;;;2.78;1.73;;;21.40;99.90;;;;;;5072130;28;20233;-73
2021/07/31 13:05:20;;;;;;;2.83;1.70;;;21.40;99.90;;;;;;5066247;28;20582;-73
2021/07/31 13:07:47;;;;;;;3.45;1.98;;;21.50;99.90;;;;;;5072846;28;20198;-73
2021/07/31 13:10:14;;;;;;;4.85;1.52;;;21.60;99.90;;;;;;5079150;28;20201;-73
2021/07/31 13:12:41;;;;;;;2.00;1.90;;;21.70;99.90;;;;;;5071996;28;20202;-73
2021/07/31 13:15:08;;;;;;;4.32;1.95;;;21.90;99.90;;;;;;5071917;28;20236;-73
2021/07/31 13:17:35;;;;;;;3.05;2.40;;;21.90;99.90;;;;;;5072042;28;20324;-74
2021/07/31 13:20:02;;;;;;;5.07;2.05;;;21.90;99.90;;;;;;5070446;28;20197;-73
2021/07/31 13:22:31;;;;;;;2.38;1.60;;;22.00;99.90;;;;;;5065698;28;20716;-73
2021/07/31 13:24:58;;;;;;;2.85;2.08;;;22.20;99.90;;;;;;5071394;28;20225;-73
2021/07/31 13:27:26;;;;;;;4.15;2.05;;;22.30;99.90;;;;;;5070693;28;20260;-73
2021/07/31 13:29:53;;;;;;;3.55;2.30;;;22.40;99.90;;;;;;5067977;28;20210;-74
2021/07/31 13:32:21;;;;;;;6.85;2.50;;;22.50;99.90;;;;;;5067692;28;20257;-74
2021/07/31 13:34:48;;;;;;;3.60;1.88;;;22.70;99.90;;;;;;5066586;28;20232;-74
2021/07/31 13:37:19;;;;;;;7.40;2.03;;;22.80;99.90;;;;;;5072840;28;20197;-73
2021/07/31 13:39:49;;;;;;;2.22;2.03;;;22.90;99.90;;;;;;5077159;28;20220;-73
2021/07/31 13:42:16;;;;;;;1.95;1.85;;;22.90;99.90;;;;;;5065129;28;20237;-73
2021/07/31 13:44:47;;;;;;;3.95;1.98;;;22.90;99.90;;;;;;5067074;28;20275;-73
2021/07/31 13:47:14;;;;;;;1.88;1.52;;;22.90;99.90;;;;;;5075792;28;20204;-73
2021/07/31 13:49:41;;;;;;;2.72;1.77;;;22.90;99.90;;;;;;5075627;28;20206;-73
2021/07/31 13:52:08;;;;;;;1.98;1.70;;;22.80;99.90;;;;;;5070055;28;20198;-73
2021/07/31 13:54:35;;;;;;;3.10;2.80;;;22.90;99.90;;;;;;5066318;28;20202;-73